Burbank, Oklahoma
Current Conditions -  °F | °C
As of 6:53 AM on Wednesday 22 Oct 2014 (Local Time) from KPNC Reporting Station
Clear Clear  
Wind Chill: 61°   Ceiling: Unl
Heat Index: 61°   Visibility: 8mi
Dew Point: 57°   Wind: 5mph
Humidity: 87%   Direction: 150°SSE
Pressure: 30.11"   Gusts: NA
Location:  36.7°N, 96.73°W
Report Text: KPNC 221153Z AUTO 15004KT 8SM CLR 16/14 A3011 RMK AO2 SLP188 T01610139 10194 20156 53018
Loading
Personal Weather Stations






























Interactive Weather Map
Tropical Storm Tracking
New forecast layout! Learn more

10-Day Weather Forecast

Advertisements
Track Severe Weather on mobile